GTOMP FGAN-FPST
Flight info
| Callsign | GTOMP |
|---|---|
| Flight time | 0h 53m |
| Altitude | 3000 |
| Route | DIRECT |
| Aircraft | BE35/L-V/N |
Departure
| Time | 2026-04-20 18:10 |
|---|---|
| Airport | Annobón Airport (FGAN) |
Arrival
| Time | 2026-04-20 19:03 |
|---|---|
| Airport | São Tomé International Airport (FPST) |
| Time | Latitude | Longitude | Altitude | Speed | Heading |
|---|---|---|---|---|---|
| 2026-04-20 17:53 | -1.41017 | 5.62070 | 79 ft | 0 kts | 49° |
| 2026-04-20 18:03 | -1.41004 | 5.62099 | 80 ft | 7 kts | 96° |
| 2026-04-20 18:03 | -1.41034 | 5.62136 | 82 ft | 5 kts | 139° |
| 2026-04-20 18:03 | -1.41071 | 5.62171 | 85 ft | 9 kts | 105° |
| 2026-04-20 18:04 | -1.41029 | 5.62257 | 83 ft | 12 kts | 47° |
| 2026-04-20 18:04 | -1.40963 | 5.62328 | 81 ft | 16 kts | 48° |
| 2026-04-20 18:04 | -1.40886 | 5.62414 | 78 ft | 16 kts | 49° |
| 2026-04-20 18:04 | -1.40806 | 5.62507 | 70 ft | 18 kts | 48° |
| 2026-04-20 18:05 | -1.40647 | 5.62685 | 55 ft | 16 kts | 48° |
| 2026-04-20 18:05 | -1.40568 | 5.62773 | 46 ft | 16 kts | 49° |
| 2026-04-20 18:05 | -1.40500 | 5.62866 | 38 ft | 14 kts | 76° |
| 2026-04-20 18:06 | -1.40470 | 5.62909 | 34 ft | 0 kts | 330° |
| 2026-04-20 18:08 | -1.40463 | 5.62867 | 35 ft | 9 kts | 244° |
| 2026-04-20 18:08 | -1.40469 | 5.62857 | 36 ft | 0 kts | 230° |
| 2026-04-20 18:09 | -1.40542 | 5.62778 | 44 ft | 41 kts | 223° |
| 2026-04-20 18:09 | -1.40839 | 5.62446 | 75 ft | 87 kts | 229° |
| 2026-04-20 18:09 | -1.41218 | 5.61889 | 250 ft | 108 kts | 233° |
| 2026-04-20 18:09 | -1.41432 | 5.61174 | 508 ft | 117 kts | 273° |
| 2026-04-20 18:10 | -1.41033 | 5.60428 | 788 ft | 126 kts | 315° |
| 2026-04-20 18:10 | -1.40207 | 5.60119 | 1026 ft | 129 kts | 8° |
| 2026-04-20 18:10 | -1.39489 | 5.60572 | 1235 ft | 129 kts | 47° |
| 2026-04-20 18:10 | -1.38801 | 5.61193 | 1476 ft | 133 kts | 48° |
| 2026-04-20 18:11 | -1.38172 | 5.61844 | 1769 ft | 128 kts | 57° |
| 2026-04-20 18:11 | -1.37605 | 5.62622 | 1813 ft | 146 kts | 59° |
| 2026-04-20 18:11 | -1.37054 | 5.63472 | 1999 ft | 145 kts | 64° |
| 2026-04-20 18:11 | -1.36582 | 5.64350 | 2219 ft | 140 kts | 62° |
| 2026-04-20 18:12 | -1.35950 | 5.65105 | 2311 ft | 149 kts | 49° |
| 2026-04-20 18:12 | -1.35158 | 5.65840 | 2324 ft | 156 kts | 47° |
| 2026-04-20 18:12 | -1.34461 | 5.66622 | 2529 ft | 148 kts | 53° |
| 2026-04-20 18:12 | -1.33696 | 5.67367 | 2557 ft | 156 kts | 45° |
| 2026-04-20 18:13 | -1.32889 | 5.68107 | 2557 ft | 161 kts | 46° |
| 2026-04-20 18:13 | -1.31868 | 5.68648 | 2553 ft | 168 kts | 27° |
| 2026-04-20 18:13 | -1.30870 | 5.69263 | 2551 ft | 169 kts | 35° |
| 2026-04-20 18:13 | -1.29867 | 5.69877 | 2546 ft | 170 kts | 35° |
| 2026-04-20 18:14 | -1.28851 | 5.70498 | 2543 ft | 171 kts | 36° |
| 2026-04-20 18:14 | -1.27894 | 5.71204 | 2543 ft | 171 kts | 41° |
| 2026-04-20 18:14 | -1.26944 | 5.71936 | 2543 ft | 171 kts | 41° |
| 2026-04-20 18:14 | -1.25990 | 5.72671 | 2543 ft | 171 kts | 41° |
| 2026-04-20 18:15 | -1.25021 | 5.73351 | 2544 ft | 173 kts | 36° |
| 2026-04-20 18:15 | -1.23993 | 5.73985 | 2543 ft | 173 kts | 35° |
| 2026-04-20 18:15 | -1.22958 | 5.74613 | 2541 ft | 173 kts | 35° |
| 2026-04-20 18:15 | -1.21921 | 5.75237 | 2542 ft | 173 kts | 35° |
| 2026-04-20 18:16 | -1.20888 | 5.75865 | 2544 ft | 173 kts | 35° |
| 2026-04-20 18:16 | -1.19862 | 5.76490 | 2544 ft | 173 kts | 35° |
| 2026-04-20 18:16 | -1.18827 | 5.77124 | 2545 ft | 173 kts | 34° |
| 2026-04-20 18:16 | -1.17795 | 5.77765 | 2545 ft | 173 kts | 35° |
| 2026-04-20 18:17 | -1.16771 | 5.78399 | 2546 ft | 173 kts | 35° |
| 2026-04-20 18:17 | -1.15745 | 5.79039 | 2547 ft | 171 kts | 35° |
| 2026-04-20 18:17 | -1.14724 | 5.79673 | 2551 ft | 170 kts | 35° |
| 2026-04-20 18:17 | -1.13719 | 5.80292 | 2555 ft | 169 kts | 35° |
| 2026-04-20 18:18 | -1.12711 | 5.80910 | 2558 ft | 168 kts | 35° |
| 2026-04-20 18:18 | -1.11711 | 5.81518 | 2557 ft | 168 kts | 35° |
| 2026-04-20 18:18 | -1.10705 | 5.82135 | 2558 ft | 168 kts | 35° |
| 2026-04-20 18:18 | -1.09712 | 5.82741 | 2558 ft | 168 kts | 35° |
| 2026-04-20 18:19 | -1.08706 | 5.83360 | 2558 ft | 168 kts | 35° |
| 2026-04-20 18:19 | -1.07703 | 5.83973 | 2558 ft | 168 kts | 35° |
| 2026-04-20 18:19 | -1.06712 | 5.84582 | 2558 ft | 168 kts | 35° |
| 2026-04-20 18:19 | -1.05700 | 5.85206 | 2558 ft | 168 kts | 34° |
| 2026-04-20 18:20 | -1.04710 | 5.85825 | 2558 ft | 169 kts | 35° |
| 2026-04-20 18:20 | -1.03708 | 5.86458 | 2558 ft | 169 kts | 35° |
| 2026-04-20 18:20 | -1.02715 | 5.87085 | 2558 ft | 169 kts | 35° |
| 2026-04-20 18:20 | -1.01726 | 5.87713 | 2558 ft | 169 kts | 35° |
| 2026-04-20 18:21 | -1.00729 | 5.88344 | 2558 ft | 168 kts | 35° |
| 2026-04-20 18:21 | -0.99728 | 5.88971 | 2558 ft | 168 kts | 35° |
| 2026-04-20 18:21 | -0.98740 | 5.89586 | 2558 ft | 168 kts | 35° |
| 2026-04-20 18:21 | -0.97733 | 5.90205 | 2558 ft | 168 kts | 35° |
| 2026-04-20 18:22 | -0.96726 | 5.90828 | 2558 ft | 168 kts | 35° |
| 2026-04-20 18:22 | -0.95740 | 5.91439 | 2558 ft | 168 kts | 35° |
| 2026-04-20 18:22 | -0.94738 | 5.92066 | 2558 ft | 168 kts | 35° |
| 2026-04-20 18:22 | -0.93739 | 5.92698 | 2558 ft | 168 kts | 35° |
| 2026-04-20 18:23 | -0.92754 | 5.93321 | 2557 ft | 168 kts | 35° |
| 2026-04-20 18:23 | -0.91761 | 5.93952 | 2557 ft | 169 kts | 35° |
| 2026-04-20 18:23 | -0.90764 | 5.94585 | 2556 ft | 169 kts | 35° |
| 2026-04-20 18:23 | -0.89764 | 5.95220 | 2554 ft | 169 kts | 35° |
| 2026-04-20 18:24 | -0.88780 | 5.95848 | 2552 ft | 169 kts | 35° |
| 2026-04-20 18:24 | -0.87781 | 5.96486 | 2551 ft | 169 kts | 35° |
| 2026-04-20 18:24 | -0.86792 | 5.97111 | 2551 ft | 168 kts | 35° |
| 2026-04-20 18:24 | -0.85784 | 5.97739 | 2552 ft | 168 kts | 35° |
| 2026-04-20 18:25 | -0.84798 | 5.98355 | 2550 ft | 168 kts | 35° |
| 2026-04-20 18:25 | -0.83796 | 5.98987 | 2547 ft | 168 kts | 35° |
| 2026-04-20 18:25 | -0.82801 | 5.99612 | 2543 ft | 169 kts | 35° |
| 2026-04-20 18:25 | -0.81811 | 6.00238 | 2539 ft | 169 kts | 35° |
| 2026-04-20 18:26 | -0.80816 | 6.00873 | 2536 ft | 169 kts | 35° |
| 2026-04-20 18:26 | -0.79809 | 6.01517 | 2534 ft | 169 kts | 35° |
| 2026-04-20 18:26 | -0.78815 | 6.02152 | 2536 ft | 169 kts | 35° |
| 2026-04-20 18:26 | -0.77821 | 6.02785 | 2536 ft | 169 kts | 35° |
| 2026-04-20 18:27 | -0.76832 | 6.03414 | 2537 ft | 169 kts | 35° |
| 2026-04-20 18:27 | -0.75832 | 6.04048 | 2536 ft | 169 kts | 35° |
| 2026-04-20 18:27 | -0.74843 | 6.04676 | 2536 ft | 169 kts | 35° |
| 2026-04-20 18:27 | -0.73845 | 6.05308 | 2537 ft | 169 kts | 36° |
| 2026-04-20 18:28 | -0.72840 | 6.05937 | 2536 ft | 169 kts | 35° |
| 2026-04-20 18:28 | -0.71853 | 6.06558 | 2536 ft | 168 kts | 35° |
| 2026-04-20 18:28 | -0.70857 | 6.07189 | 2536 ft | 168 kts | 36° |
| 2026-04-20 18:28 | -0.69856 | 6.07820 | 2537 ft | 168 kts | 35° |
| 2026-04-20 18:29 | -0.68873 | 6.08444 | 2536 ft | 168 kts | 36° |
| 2026-04-20 18:29 | -0.67874 | 6.09075 | 2536 ft | 168 kts | 35° |
| 2026-04-20 18:29 | -0.66890 | 6.09701 | 2536 ft | 168 kts | 35° |
| 2026-04-20 18:29 | -0.65896 | 6.10335 | 2536 ft | 168 kts | 35° |
| 2026-04-20 18:30 | -0.64901 | 6.10976 | 2538 ft | 168 kts | 35° |
| 2026-04-20 18:30 | -0.63914 | 6.11608 | 2541 ft | 169 kts | 35° |
| 2026-04-20 18:30 | -0.62913 | 6.12244 | 2543 ft | 169 kts | 35° |
| 2026-04-20 18:30 | -0.61924 | 6.12873 | 2546 ft | 169 kts | 35° |
| 2026-04-20 18:31 | -0.60920 | 6.13506 | 2548 ft | 169 kts | 35° |
| 2026-04-20 18:31 | -0.59928 | 6.14138 | 2550 ft | 169 kts | 36° |
| 2026-04-20 18:31 | -0.58926 | 6.14773 | 2553 ft | 169 kts | 35° |
| 2026-04-20 18:31 | -0.57929 | 6.15409 | 2555 ft | 169 kts | 35° |
| 2026-04-20 18:32 | -0.56939 | 6.16039 | 2556 ft | 169 kts | 35° |
| 2026-04-20 18:32 | -0.55946 | 6.16679 | 2557 ft | 169 kts | 36° |
| 2026-04-20 18:32 | -0.54943 | 6.17323 | 2557 ft | 169 kts | 35° |
| 2026-04-20 18:32 | -0.53961 | 6.17960 | 2557 ft | 169 kts | 35° |
| 2026-04-20 18:33 | -0.52976 | 6.18600 | 2557 ft | 169 kts | 35° |
| 2026-04-20 18:33 | -0.51985 | 6.19249 | 2557 ft | 169 kts | 36° |
| 2026-04-20 18:33 | -0.50994 | 6.19889 | 2557 ft | 169 kts | 35° |
| 2026-04-20 18:33 | -0.49999 | 6.20536 | 2557 ft | 169 kts | 35° |
| 2026-04-20 18:34 | -0.49017 | 6.21174 | 2556 ft | 169 kts | 35° |
| 2026-04-20 18:34 | -0.48019 | 6.21819 | 2555 ft | 169 kts | 36° |
| 2026-04-20 18:34 | -0.47029 | 6.22458 | 2556 ft | 169 kts | 36° |
| 2026-04-20 18:34 | -0.46033 | 6.23095 | 2555 ft | 169 kts | 36° |
| 2026-04-20 18:35 | -0.45033 | 6.23732 | 2554 ft | 169 kts | 35° |
| 2026-04-20 18:35 | -0.44044 | 6.24371 | 2550 ft | 169 kts | 36° |
| 2026-04-20 18:35 | -0.43041 | 6.25017 | 2547 ft | 170 kts | 35° |
| 2026-04-20 18:35 | -0.42047 | 6.25662 | 2544 ft | 170 kts | 36° |
| 2026-04-20 18:36 | -0.41048 | 6.26310 | 2542 ft | 170 kts | 35° |
| 2026-04-20 18:36 | -0.40062 | 6.26950 | 2540 ft | 170 kts | 35° |
| 2026-04-20 18:36 | -0.39062 | 6.27604 | 2538 ft | 170 kts | 35° |
| 2026-04-20 18:36 | -0.38071 | 6.28259 | 2537 ft | 169 kts | 36° |
| 2026-04-20 18:37 | -0.37090 | 6.28903 | 2536 ft | 169 kts | 36° |
| 2026-04-20 18:37 | -0.36096 | 6.29550 | 2536 ft | 169 kts | 36° |
| 2026-04-20 18:37 | -0.35106 | 6.30194 | 2536 ft | 169 kts | 35° |
| 2026-04-20 18:37 | -0.34120 | 6.30834 | 2536 ft | 169 kts | 35° |
| 2026-04-20 18:38 | -0.33118 | 6.31485 | 2536 ft | 169 kts | 36° |
| 2026-04-20 18:38 | -0.32132 | 6.32123 | 2536 ft | 170 kts | 35° |
| 2026-04-20 18:38 | -0.31146 | 6.32763 | 2535 ft | 167 kts | 36° |
| 2026-04-20 18:38 | -0.30176 | 6.33392 | 2535 ft | 165 kts | 36° |
| 2026-04-20 18:39 | -0.29208 | 6.34018 | 2536 ft | 163 kts | 35° |
| 2026-04-20 18:39 | -0.28261 | 6.34631 | 2536 ft | 162 kts | 35° |
| 2026-04-20 18:39 | -0.27308 | 6.35256 | 2536 ft | 162 kts | 35° |
| 2026-04-20 18:39 | -0.26364 | 6.35876 | 2537 ft | 163 kts | 35° |
| 2026-04-20 18:40 | -0.25402 | 6.36506 | 2536 ft | 164 kts | 35° |
| 2026-04-20 18:40 | -0.24447 | 6.37132 | 2536 ft | 165 kts | 35° |
| 2026-04-20 18:40 | -0.23480 | 6.37763 | 2536 ft | 165 kts | 35° |
| 2026-04-20 18:40 | -0.22504 | 6.38397 | 2536 ft | 165 kts | 35° |
| 2026-04-20 18:41 | -0.21541 | 6.39026 | 2536 ft | 167 kts | 36° |
| 2026-04-20 18:41 | -0.20553 | 6.39670 | 2537 ft | 168 kts | 35° |
| 2026-04-20 18:41 | -0.19580 | 6.40310 | 2537 ft | 169 kts | 35° |
| 2026-04-20 18:41 | -0.18590 | 6.40965 | 2536 ft | 169 kts | 35° |
| 2026-04-20 18:42 | -0.17600 | 6.41621 | 2536 ft | 170 kts | 36° |
| 2026-04-20 18:42 | -0.16613 | 6.42267 | 2537 ft | 170 kts | 35° |
| 2026-04-20 18:42 | -0.15621 | 6.42922 | 2536 ft | 170 kts | 36° |
| 2026-04-20 18:42 | -0.14621 | 6.43580 | 2536 ft | 170 kts | 35° |
| 2026-04-20 18:43 | -0.13631 | 6.44233 | 2536 ft | 171 kts | 35° |
| 2026-04-20 18:43 | -0.12635 | 6.44894 | 2536 ft | 170 kts | 35° |
| 2026-04-20 18:43 | -0.11642 | 6.45556 | 2536 ft | 170 kts | 36° |
| 2026-04-20 18:43 | -0.10659 | 6.46209 | 2536 ft | 170 kts | 36° |
| 2026-04-20 18:44 | -0.09682 | 6.46857 | 2536 ft | 163 kts | 36° |
| 2026-04-20 18:44 | -0.08741 | 6.47474 | 2542 ft | 158 kts | 35° |
| 2026-04-20 18:44 | -0.07832 | 6.48070 | 2548 ft | 155 kts | 36° |
| 2026-04-20 18:44 | -0.06934 | 6.48662 | 2553 ft | 153 kts | 36° |
| 2026-04-20 18:45 | -0.06048 | 6.49251 | 2555 ft | 152 kts | 35° |
| 2026-04-20 18:45 | -0.05167 | 6.49836 | 2553 ft | 151 kts | 36° |
| 2026-04-20 18:45 | -0.04283 | 6.50425 | 2549 ft | 151 kts | 36° |
| 2026-04-20 18:45 | -0.03405 | 6.51005 | 2546 ft | 151 kts | 35° |
| 2026-04-20 18:46 | -0.02527 | 6.51586 | 2544 ft | 151 kts | 36° |
| 2026-04-20 18:46 | -0.01644 | 6.52169 | 2541 ft | 151 kts | 35° |
| 2026-04-20 18:46 | -0.00759 | 6.52754 | 2540 ft | 151 kts | 35° |
| 2026-04-20 18:46 | 0.00113 | 6.53330 | 2538 ft | 151 kts | 36° |
| 2026-04-20 18:47 | 0.01000 | 6.53916 | 2538 ft | 149 kts | 36° |
| 2026-04-20 18:47 | 0.01842 | 6.54470 | 2537 ft | 141 kts | 35° |
| 2026-04-20 18:47 | 0.02660 | 6.55009 | 2459 ft | 142 kts | 36° |
| 2026-04-20 18:47 | 0.03488 | 6.55559 | 2364 ft | 141 kts | 36° |
| 2026-04-20 18:48 | 0.04303 | 6.56103 | 2270 ft | 140 kts | 36° |
| 2026-04-20 18:48 | 0.05112 | 6.56641 | 2172 ft | 140 kts | 35° |
| 2026-04-20 18:48 | 0.05925 | 6.57181 | 2071 ft | 139 kts | 35° |
| 2026-04-20 18:48 | 0.06696 | 6.57760 | 1964 ft | 138 kts | 53° |
| 2026-04-20 18:49 | 0.06949 | 6.58643 | 1855 ft | 132 kts | 98° |
| 2026-04-20 18:49 | 0.06963 | 6.59560 | 1755 ft | 134 kts | 78° |
| 2026-04-20 18:49 | 0.07302 | 6.60417 | 1663 ft | 134 kts | 72° |
| 2026-04-20 18:49 | 0.07646 | 6.61294 | 1566 ft | 135 kts | 72° |
| 2026-04-20 18:50 | 0.07985 | 6.62163 | 1470 ft | 135 kts | 71° |
| 2026-04-20 18:50 | 0.08357 | 6.63029 | 1375 ft | 136 kts | 68° |
| 2026-04-20 18:50 | 0.08784 | 6.63883 | 1279 ft | 137 kts | 61° |
| 2026-04-20 18:50 | 0.09375 | 6.64633 | 1187 ft | 139 kts | 46° |
| 2026-04-20 18:51 | 0.10135 | 6.65231 | 1091 ft | 140 kts | 37° |
| 2026-04-20 18:51 | 0.10953 | 6.65799 | 996 ft | 146 kts | 36° |
| 2026-04-20 18:51 | 0.11807 | 6.66397 | 907 ft | 155 kts | 37° |
| 2026-04-20 18:51 | 0.12712 | 6.67032 | 846 ft | 158 kts | 37° |
| 2026-04-20 18:52 | 0.13611 | 6.67652 | 855 ft | 157 kts | 37° |
| 2026-04-20 18:52 | 0.14513 | 6.68272 | 855 ft | 156 kts | 37° |
| 2026-04-20 18:52 | 0.15412 | 6.68887 | 909 ft | 152 kts | 37° |
| 2026-04-20 18:52 | 0.16280 | 6.69479 | 939 ft | 152 kts | 37° |
| 2026-04-20 18:53 | 0.17170 | 6.70083 | 929 ft | 154 kts | 37° |
| 2026-04-20 18:53 | 0.18051 | 6.70683 | 924 ft | 153 kts | 37° |
| 2026-04-20 18:53 | 0.18926 | 6.71274 | 924 ft | 148 kts | 37° |
| 2026-04-20 18:53 | 0.19768 | 6.71852 | 924 ft | 143 kts | 37° |
| 2026-04-20 18:54 | 0.20574 | 6.72406 | 923 ft | 139 kts | 37° |
| 2026-04-20 18:54 | 0.21367 | 6.72951 | 923 ft | 136 kts | 37° |
| 2026-04-20 18:54 | 0.22143 | 6.73485 | 924 ft | 135 kts | 37° |
| 2026-04-20 18:54 | 0.22946 | 6.74031 | 928 ft | 142 kts | 36° |
| 2026-04-20 18:55 | 0.23770 | 6.74595 | 930 ft | 147 kts | 37° |
| 2026-04-20 18:55 | 0.24759 | 6.74908 | 935 ft | 152 kts | 0° |
| 2026-04-20 18:55 | 0.25823 | 6.74850 | 932 ft | 155 kts | 356° |
| 2026-04-20 18:55 | 0.26914 | 6.74762 | 930 ft | 157 kts | 355° |
| 2026-04-20 18:56 | 0.28004 | 6.74673 | 924 ft | 150 kts | 356° |
| 2026-04-20 18:56 | 0.29001 | 6.74589 | 982 ft | 135 kts | 355° |
| 2026-04-20 18:56 | 0.29829 | 6.74479 | 1193 ft | 108 kts | 349° |
| 2026-04-20 18:56 | 0.30529 | 6.74433 | 1365 ft | 94 kts | 6° |
| 2026-04-20 18:57 | 0.31206 | 6.74371 | 1421 ft | 100 kts | 347° |
| 2026-04-20 18:57 | 0.31916 | 6.74224 | 1399 ft | 107 kts | 347° |
| 2026-04-20 18:57 | 0.32714 | 6.74060 | 1075 ft | 125 kts | 350° |
| 2026-04-20 18:57 | 0.33579 | 6.73897 | 822 ft | 126 kts | 349° |
| 2026-04-20 18:58 | 0.34345 | 6.73524 | 444 ft | 134 kts | 301° |
| 2026-04-20 18:58 | 0.34697 | 6.72743 | 452 ft | 106 kts | 289° |
| 2026-04-20 18:58 | 0.34997 | 6.72124 | 418 ft | 97 kts | 293° |
| 2026-04-20 18:58 | 0.35309 | 6.71550 | 398 ft | 88 kts | 293° |
| 2026-04-20 18:59 | 0.35611 | 6.70984 | 408 ft | 96 kts | 292° |
| 2026-04-20 18:59 | 0.35940 | 6.70334 | 385 ft | 107 kts | 288° |
| 2026-04-20 18:59 | 0.36216 | 6.69655 | 446 ft | 106 kts | 279° |
| 2026-04-20 18:59 | 0.36390 | 6.68939 | 495 ft | 106 kts | 279° |
| 2026-04-20 19:00 | 0.36591 | 6.68245 | 537 ft | 99 kts | 283° |
| 2026-04-20 19:00 | 0.36830 | 6.67637 | 531 ft | 91 kts | 289° |
| 2026-04-20 19:00 | 0.37246 | 6.67236 | 396 ft | 87 kts | 348° |
| 2026-04-20 19:00 | 0.37720 | 6.67308 | 392 ft | 61 kts | 44° |
| 2026-04-20 19:01 | 0.38074 | 6.67558 | 430 ft | 59 kts | 34° |
| 2026-04-20 19:01 | 0.38381 | 6.67844 | 423 ft | 56 kts | 77° |
| 2026-04-20 19:01 | 0.38493 | 6.68252 | 446 ft | 65 kts | 88° |
| 2026-04-20 19:01 | 0.38451 | 6.68731 | 495 ft | 75 kts | 105° |
| 2026-04-20 19:02 | 0.38335 | 6.69235 | 428 ft | 76 kts | 108° |
| 2026-04-20 19:02 | 0.38184 | 6.69749 | 294 ft | 76 kts | 108° |
| 2026-04-20 19:02 | 0.38050 | 6.70270 | 102 ft | 77 kts | 110° |
| 2026-04-20 19:02 | 0.37930 | 6.70729 | 55 ft | 56 kts | 109° |
| 2026-04-20 19:03 | 0.37849 | 6.71031 | 54 ft | 21 kts | 99° |
| 2026-04-20 19:03 | 0.37780 | 6.71111 | 54 ft | 6 kts | 203° |
| 2026-04-20 19:03 | 0.37733 | 6.71092 | 55 ft | 8 kts | 199° |
| 2026-04-20 19:03 | 0.37676 | 6.71126 | 55 ft | 10 kts | 136° |
| 2026-04-20 19:04 | 0.37640 | 6.71220 | 53 ft | 14 kts | 103° |
| 2026-04-20 19:04 | 0.37594 | 6.71278 | 51 ft | 10 kts | 138° |
| 2026-04-20 19:04 | 0.37566 | 6.71330 | 51 ft | 5 kts | 163° |
| 2026-04-20 19:04 | 0.37555 | 6.71317 | 51 ft | 5 kts | 276° |
| 2026-04-20 19:05 | 0.37555 | 6.71314 | 51 ft | 0 kts | 279° |